createdAt,value
2023-04-28T00:00:02.168Z,96189.88
2023-04-28T00:02:29.702Z,96185.88
2023-04-28T00:04:59.081Z,96191.72
2023-04-28T00:07:26.784Z,96191.88
2023-04-28T00:09:54.269Z,96188.91
2023-04-28T00:12:21.721Z,96193.84
2023-04-28T00:14:49.190Z,96185.19
2023-04-28T00:17:17.166Z,96182.56
2023-04-28T00:19:44.960Z,96189.66
2023-04-28T00:22:15.101Z,96182.19
2023-04-28T00:24:42.794Z,96183.88
2023-04-28T00:27:10.312Z,96180.72
2023-04-28T00:29:37.815Z,96169.78
2023-04-28T00:32:05.498Z,96176.94
2023-04-28T00:34:34.208Z,96168.97
2023-04-28T00:37:01.690Z,96171.44
2023-04-28T00:39:30.619Z,96175.25
2023-04-28T00:41:58.166Z,96171.94
2023-04-28T00:44:25.618Z,96178.91
2023-04-28T00:46:53.162Z,96172.59
2023-04-28T00:49:20.963Z,96179.59
2023-04-28T00:51:48.455Z,96179.25
2023-04-28T00:54:16.129Z,96172.63
2023-04-28T00:56:45.642Z,96168.63
2023-04-28T00:59:13.102Z,96161.28
2023-04-28T01:01:40.659Z,96151.63
2023-04-28T01:04:08.522Z,96164.78
2023-04-28T01:06:38.166Z,96160.84
2023-04-28T01:09:06.267Z,96152.69
2023-04-28T01:11:33.786Z,96147.38
2023-04-28T01:14:02.560Z,96155.47
2023-04-28T01:16:32.478Z,96146.03
2023-04-28T01:19:01.409Z,96150.31
2023-04-28T01:21:30.362Z,96147.00
2023-04-28T01:23:59.245Z,96147.19
2023-04-28T01:26:27.223Z,96148.38
2023-04-28T01:28:54.754Z,96153.03
2023-04-28T01:31:22.295Z,96141.56
2023-04-28T01:33:49.790Z,96144.53
2023-04-28T01:36:17.259Z,96141.38
2023-04-28T01:38:44.739Z,96137.03
2023-04-28T01:41:13.574Z,96135.84
2023-04-28T01:43:41.040Z,96128.56
2023-04-28T01:46:08.567Z,96137.91
2023-04-28T01:48:36.170Z,96140.06
2023-04-28T01:51:03.710Z,96137.06
2023-04-28T01:53:31.201Z,96139.00
2023-04-28T01:55:59.203Z,96138.34
2023-04-28T01:58:28.011Z,96144.72
2023-04-28T02:00:55.480Z,96137.38
2023-04-28T02:03:22.992Z,96143.38
2023-04-28T02:05:50.730Z,96132.09
2023-04-28T02:08:18.434Z,96131.09
2023-04-28T02:10:45.984Z,96127.66
2023-04-28T02:13:13.511Z,96112.56
2023-04-28T02:15:43.380Z,96114.72
2023-04-28T02:18:11.054Z,96112.75
2023-04-28T02:20:38.569Z,96118.41
2023-04-28T02:23:06.143Z,96116.50
2023-04-28T02:25:33.676Z,96119.56
2023-04-28T02:28:01.142Z,96125.84
2023-04-28T02:30:28.663Z,96116.25
2023-04-28T02:32:57.508Z,96115.25
2023-04-28T02:35:25.046Z,96115.91
2023-04-28T02:37:52.629Z,96108.59
2023-04-28T02:40:20.591Z,96111.94
2023-04-28T02:42:48.113Z,96105.63
2023-04-28T02:45:15.785Z,96117.06
2023-04-28T02:47:43.286Z,96114.06
2023-04-28T02:50:12.348Z,96114.75
2023-04-28T02:52:39.815Z,96110.41
2023-04-28T02:55:08.122Z,96107.28
2023-04-28T02:57:35.593Z,96113.41
2023-04-28T03:00:03.142Z,96112.09
2023-04-28T03:02:31.257Z,96106.94
2023-04-28T03:04:58.921Z,96103.31
2023-04-28T03:07:27.857Z,96096.81
2023-04-28T03:09:55.433Z,96108.38
2023-04-28T03:12:22.933Z,96093.16
2023-04-28T03:14:50.392Z,96095.13
2023-04-28T03:17:18.084Z,96091.38
2023-04-28T03:19:45.540Z,96100.47
2023-04-28T03:22:13.013Z,96096.81
2023-04-28T03:24:41.805Z,96086.50
2023-04-28T03:27:09.257Z,96085.19
2023-04-28T03:29:36.727Z,96088.19
2023-04-28T03:32:04.187Z,96090.69
2023-04-28T03:34:31.723Z,96080.25
2023-04-28T03:36:59.294Z,96069.66
2023-04-28T03:39:26.762Z,96072.78
2023-04-28T03:41:55.630Z,96071.06
2023-04-28T03:44:23.455Z,96062.47
2023-04-28T03:46:51.083Z,96067.16
2023-04-28T03:49:18.539Z,96064.81
2023-04-28T03:51:46.640Z,96064.81
2023-04-28T03:54:14.274Z,96061.34
2023-04-28T03:56:41.906Z,96055.50
2023-04-28T03:59:11.718Z,96055.78
2023-04-28T04:01:39.173Z,96054.59
2023-04-28T04:04:07.098Z,96052.78
2023-04-28T04:06:34.891Z,96056.56
2023-04-28T04:09:02.702Z,96058.25
2023-04-28T04:11:30.164Z,96060.25
2023-04-28T04:13:57.605Z,96065.97
2023-04-28T04:16:26.808Z,96055.53
2023-04-28T04:18:54.462Z,96049.22
2023-04-28T04:21:22.040Z,96045.59
2023-04-28T04:23:49.526Z,96053.59
2023-04-28T04:26:16.996Z,96044.41
2023-04-28T04:28:44.481Z,96058.53
2023-04-28T04:31:12.375Z,96051.22
2023-04-28T04:33:41.233Z,96047.09
2023-04-28T04:36:09.146Z,96037.13
2023-04-28T04:38:36.628Z,96034.84
2023-04-28T04:41:04.128Z,96028.53
2023-04-28T04:43:31.592Z,96034.84
2023-04-28T04:45:59.288Z,96038.63
2023-04-28T04:48:26.776Z,96035.16
2023-04-28T04:50:55.573Z,96034.63
2023-04-28T04:53:23.168Z,96024.03
2023-04-28T04:55:50.678Z,96028.72
2023-04-28T04:58:18.300Z,96024.88
2023-04-28T05:00:45.798Z,96012.16
2023-04-28T05:03:13.525Z,96007.66
2023-04-28T05:05:41.365Z,96016.44
2023-04-28T05:08:10.534Z,96015.09
2023-04-28T05:10:38.093Z,96020.72
2023-04-28T05:13:05.676Z,96022.06
2023-04-28T05:15:33.539Z,96029.50
2023-04-28T05:18:01.198Z,96027.63
2023-04-28T05:20:28.681Z,96027.81
2023-04-28T05:22:56.111Z,96023.69
2023-04-28T05:25:24.893Z,96022.56
2023-04-28T05:27:52.381Z,96017.09
2023-04-28T05:30:19.978Z,96012.94
2023-04-28T05:32:47.495Z,96021.22
2023-04-28T05:35:15.197Z,96013.28
2023-04-28T05:37:43.555Z,96025.38
2023-04-28T05:40:11.777Z,96035.06
2023-04-28T05:42:40.629Z,96045.19
2023-04-28T05:45:09.352Z,96039.81
2023-04-28T05:47:36.956Z,96037.53
2023-04-28T05:50:04.762Z,96042.56
2023-04-28T05:52:32.218Z,96035.59
2023-04-28T05:54:59.680Z,96033.47
2023-04-28T05:57:27.310Z,96033.31
2023-04-28T05:59:56.160Z,96032.28
2023-04-28T06:02:24.537Z,96029.47
2023-04-28T06:04:53.335Z,96026.97
2023-04-28T06:07:21.513Z,96026.75
2023-04-28T06:09:49.773Z,96015.72
2023-04-28T06:12:17.230Z,96011.06
2023-04-28T06:14:44.680Z,96010.84
2023-04-28T06:17:13.494Z,96005.94
2023-04-28T06:19:40.935Z,96001.47
2023-04-28T06:22:08.390Z,95993.75
2023-04-28T06:24:35.898Z,96000.09
2023-04-28T06:27:03.668Z,95989.56
2023-04-28T06:29:31.121Z,95996.94
2023-04-28T06:31:58.848Z,95995.13
2023-04-28T06:34:28.882Z,96006.72
2023-04-28T06:36:56.608Z,96008.41
2023-04-28T06:39:24.065Z,96006.84
2023-04-28T06:41:51.530Z,96015.28
2023-04-28T06:44:19.238Z,96019.91
2023-04-28T06:46:46.956Z,96028.63
2023-04-28T06:49:14.459Z,96042.97
2023-04-28T06:51:43.260Z,96046.31
2023-04-28T06:54:11.589Z,96048.94
2023-04-28T06:56:39.134Z,96060.88
2023-04-28T06:59:07.182Z,96054.22
2023-04-28T07:01:34.642Z,96051.91
2023-04-28T07:04:02.250Z,96053.53
2023-04-28T07:06:31.707Z,96051.31
2023-04-28T07:09:00.562Z,96046.47
2023-04-28T07:11:28.146Z,96047.50
2023-04-28T07:13:55.599Z,96038.91
2023-04-28T07:16:23.116Z,96038.28
2023-04-28T07:18:50.744Z,96037.13
2023-04-28T07:21:18.216Z,96042.88
2023-04-28T07:23:45.970Z,96041.03
2023-04-28T07:26:16.343Z,96050.16
2023-04-28T07:28:44.822Z,96040.25
2023-04-28T07:31:12.394Z,96036.28
2023-04-28T07:33:40.062Z,96035.13
2023-04-28T07:36:08.225Z,96030.63
2023-04-28T07:38:36.459Z,96024.03
2023-04-28T07:41:05.748Z,96026.97
2023-04-28T07:43:36.364Z,96031.69
2023-04-28T07:46:03.921Z,96032.03
2023-04-28T07:48:32.399Z,96033.34
2023-04-28T07:50:59.876Z,96032.34
2023-04-28T07:53:27.656Z,96024.22
2023-04-28T07:55:55.480Z,96029.22
2023-04-28T07:58:22.996Z,96024.22
2023-04-28T08:00:51.786Z,96019.28
2023-04-28T08:03:19.439Z,96019.72
2023-04-28T08:05:47.247Z,96028.03
2023-04-28T08:08:14.786Z,96021.91
2023-04-28T08:10:43.751Z,96020.75
2023-04-28T08:13:11.211Z,96020.56
2023-04-28T08:15:38.739Z,96016.09
2023-04-28T08:18:08.407Z,96024.19
2023-04-28T08:20:36.065Z,96020.06
2023-04-28T08:23:03.523Z,96014.06
2023-04-28T08:25:31.008Z,96006.94
2023-04-28T08:27:58.689Z,96010.97
2023-04-28T08:30:26.204Z,96010.81
2023-04-28T08:32:54.093Z,96017.13
2023-04-28T08:35:23.042Z,96019.06
2023-04-28T08:37:50.723Z,96019.75
2023-04-28T08:40:18.348Z,96013.59
2023-04-28T08:42:46.225Z,96017.56
2023-04-28T08:45:15.628Z,96029.03
2023-04-28T08:47:45.991Z,96031.97
2023-04-28T08:50:14.678Z,96033.75
2023-04-28T08:52:43.691Z,96028.47
2023-04-28T08:55:13.759Z,96023.59
2023-04-28T08:57:45.447Z,96030.28
2023-04-28T09:00:13.816Z,96033.13
2023-04-28T09:02:42.949Z,96034.38
2023-04-28T09:05:11.930Z,96039.69
2023-04-28T09:07:39.781Z,96035.84
2023-04-28T09:10:27.466Z,96041.88
2023-04-28T09:12:57.379Z,96036.78
2023-04-28T09:15:31.831Z,96028.00
2023-04-28T09:18:02.337Z,96024.16
2023-04-28T09:20:31.445Z,96022.31
2023-04-28T09:23:14.308Z,96009.03
2023-04-28T09:25:57.012Z,95999.44
2023-04-28T09:28:24.727Z,95987.47
2023-04-28T09:30:52.388Z,95985.44
2023-04-28T09:33:20.887Z,95983.78
2023-04-28T09:35:48.928Z,95986.75
2023-04-28T09:38:16.875Z,95982.59
2023-04-28T09:40:53.383Z,95974.75
2023-04-28T09:43:28.996Z,95973.81
2023-04-28T09:45:57.750Z,95969.25
2023-04-28T09:48:33.750Z,95973.41
2023-04-28T09:51:02.888Z,95965.13
2023-04-28T09:53:31.461Z,95965.81
2023-04-28T09:56:02.391Z,95962.63
2023-04-28T09:58:30.679Z,95957.28
2023-04-28T10:00:59.728Z,95957.25
2023-04-28T10:03:29.860Z,95966.84
2023-04-28T10:05:58.855Z,95962.38
2023-04-28T10:08:28.067Z,95963.16
2023-04-28T10:10:56.926Z,95960.47
2023-04-28T10:13:26.491Z,95955.88
2023-04-28T10:15:55.357Z,95966.59
2023-04-28T10:18:24.469Z,95955.03
2023-04-28T10:20:57.489Z,95954.19
2023-04-28T10:24:09.209Z,95958.69
2023-04-28T10:27:09.215Z,95958.63
2023-04-28T10:29:38.276Z,95961.56
2023-04-28T10:32:26.061Z,95953.25
2023-04-28T10:35:14.984Z,95948.22
2023-04-28T10:38:06.189Z,95943.59
2023-04-28T10:40:34.644Z,95940.03
2023-04-28T10:43:02.838Z,95932.84
2023-04-28T10:46:02.748Z,95932.38
2023-04-28T10:49:03.310Z,95925.81
2023-04-28T10:51:31.901Z,95930.09
2023-04-28T10:54:11.131Z,95931.06
2023-04-28T10:56:39.982Z,95926.91
2023-04-28T10:59:28.128Z,95920.06
2023-04-28T11:01:55.700Z,95928.78
2023-04-28T11:04:24.437Z,95928.00
2023-04-28T11:07:10.524Z,95921.03
2023-04-28T11:09:53.123Z,95916.09
2023-04-28T11:12:20.593Z,95915.31
2023-04-28T11:14:48.066Z,95909.09
2023-04-28T11:17:18.607Z,95908.22
2023-04-28T11:19:48.601Z,95912.13
2023-04-28T11:22:21.140Z,95906.81
2023-04-28T11:25:00.798Z,95898.44
2023-04-28T11:27:29.903Z,95901.28
2023-04-28T11:29:57.527Z,95908.56
2023-04-28T11:32:29.292Z,95908.44
2023-04-28T11:34:56.921Z,95931.75
2023-04-28T11:37:24.401Z,95914.72
2023-04-28T11:39:51.916Z,95914.50
2023-04-28T11:42:20.753Z,95907.22
2023-04-28T11:44:53.113Z,95898.06
2023-04-28T11:47:31.079Z,95908.59
2023-04-28T11:49:58.824Z,95916.03
2023-04-28T11:52:27.388Z,95902.56
2023-04-28T11:54:56.521Z,95903.63
2023-04-28T11:57:25.792Z,95912.31
2023-04-28T11:59:53.438Z,95912.72
2023-04-28T12:02:29.117Z,95911.47
2023-04-28T12:04:57.530Z,95911.19
2023-04-28T12:07:25.134Z,95908.97
2023-04-28T12:10:11.728Z,95901.09
2023-04-28T12:12:51.083Z,95911.63
2023-04-28T12:15:21.857Z,95905.16
2023-04-28T12:17:50.732Z,95907.47
2023-04-28T12:20:37.528Z,95905.03
2023-04-28T12:23:05.571Z,95911.13
2023-04-28T12:25:33.958Z,95917.31
2023-04-28T12:28:04.530Z,95922.94
2023-04-28T12:30:33.780Z,95914.22
2023-04-28T12:33:01.720Z,95918.81
2023-04-28T12:35:30.214Z,95912.94
2023-04-28T12:37:58.493Z,95925.44
2023-04-28T12:40:26.085Z,95911.53
2023-04-28T12:42:53.707Z,95910.53
2023-04-28T12:45:22.469Z,95902.78
2023-04-28T12:47:49.989Z,95901.81
2023-04-28T12:50:17.484Z,95906.19
2023-04-28T12:52:44.949Z,95903.44
2023-04-28T12:55:12.400Z,95907.28
2023-04-28T12:57:39.966Z,95904.25
2023-04-28T13:00:09.300Z,95903.66
2023-04-28T13:02:38.265Z,95893.03
2023-04-28T13:05:07.230Z,95909.41
2023-04-28T13:07:35.062Z,95899.63
2023-04-28T13:10:02.575Z,95905.38
2023-04-28T13:12:30.077Z,95898.75
2023-04-28T13:14:57.565Z,95890.28
2023-04-28T13:17:25.108Z,95888.28
2023-04-28T13:19:54.193Z,95890.31
2023-04-28T13:22:21.916Z,95883.63
2023-04-28T13:24:49.401Z,95880.09
2023-04-28T13:27:16.848Z,95874.22
2023-04-28T13:29:44.281Z,95863.09
2023-04-28T13:32:11.807Z,95871.47
2023-04-28T13:34:39.939Z,95868.75
2023-04-28T13:37:08.758Z,95872.81
2023-04-28T13:39:36.202Z,95879.88
2023-04-28T13:42:03.792Z,95875.94
2023-04-28T13:44:31.319Z,95864.50
2023-04-28T13:46:59.251Z,95853.38
2023-04-28T13:49:26.699Z,95845.41
2023-04-28T13:51:54.179Z,95861.63
2023-04-28T13:54:23.028Z,95850.56
2023-04-28T13:56:50.656Z,95850.53
2023-04-28T13:59:19.211Z,95844.97
2023-04-28T14:01:46.695Z,95858.44
2023-04-28T14:04:14.446Z,95850.69
2023-04-28T14:06:42.178Z,95863.03
2023-04-28T14:09:09.806Z,95871.31
2023-04-28T14:11:38.600Z,95866.13
2023-04-28T14:14:06.254Z,95867.34
2023-04-28T14:16:33.771Z,95862.88
2023-04-28T14:19:01.697Z,95852.38
2023-04-28T14:21:29.164Z,95859.78
2023-04-28T14:23:56.636Z,95864.50
2023-04-28T14:26:25.180Z,95858.34
2023-04-28T14:28:54.921Z,95852.38
2023-04-28T14:31:22.396Z,95848.25
2023-04-28T14:33:49.940Z,95843.75
2023-04-28T14:36:17.400Z,95830.97
2023-04-28T14:38:44.866Z,95824.38
2023-04-28T14:41:12.613Z,95832.63
2023-04-28T14:43:40.095Z,95822.53
2023-04-28T14:46:09.094Z,95825.59
2023-04-28T14:48:37.643Z,95820.25
2023-04-28T14:51:05.711Z,95822.75
2023-04-28T14:53:33.211Z,95815.31
2023-04-28T14:56:16.804Z,95829.31
2023-04-28T14:58:45.890Z,95825.22
2023-04-28T15:01:14.832Z,95824.38
2023-04-28T15:03:42.610Z,95840.75
2023-04-28T15:06:10.649Z,95832.31
2023-04-28T15:08:38.139Z,95836.59
2023-04-28T15:11:05.561Z,95843.03
2023-04-28T15:13:33.174Z,95837.78
2023-04-28T15:16:00.616Z,95835.34
2023-04-28T15:18:29.511Z,95831.81
2023-04-28T15:20:56.977Z,95809.91
2023-04-28T15:23:24.419Z,95801.88
2023-04-28T15:25:53.551Z,95814.06
2023-04-28T15:28:22.048Z,95823.91
2023-04-28T15:30:49.530Z,95820.19
2023-04-28T15:33:18.518Z,95804.13
2023-04-28T15:35:47.452Z,95801.22
2023-04-28T15:38:14.946Z,95797.22
2023-04-28T15:40:43.483Z,95806.75
2023-04-28T15:43:11.058Z,95807.63
2023-04-28T15:45:39.677Z,95800.13
2023-04-28T15:48:07.573Z,95807.09
2023-04-28T15:50:36.879Z,95819.00
2023-04-28T15:53:05.697Z,95817.59
2023-04-28T15:55:33.313Z,95819.72
2023-04-28T15:58:01.248Z,95811.78
2023-04-28T16:00:28.833Z,95816.25
2023-04-28T16:02:56.610Z,95824.00
2023-04-28T16:05:24.179Z,95820.06
2023-04-28T16:07:52.765Z,95821.78
2023-04-28T16:10:21.978Z,95818.78
2023-04-28T16:12:49.529Z,95817.38
2023-04-28T16:15:17.289Z,95811.19
2023-04-28T16:17:44.999Z,95816.81
2023-04-28T16:20:13.053Z,95813.34
2023-04-28T16:22:41.612Z,95820.28
2023-04-28T16:25:10.430Z,95818.03
2023-04-28T16:27:40.011Z,95813.06
2023-04-28T16:30:08.743Z,95817.44
2023-04-28T16:32:38.215Z,95807.72
2023-04-28T16:35:06.417Z,95820.88
2023-04-28T16:37:36.242Z,95809.56
2023-04-28T16:40:04.480Z,95809.34
2023-04-28T16:42:32.137Z,95814.91
2023-04-28T16:45:00.926Z,95811.00
2023-04-28T16:47:31.098Z,95804.00
2023-04-28T16:49:58.729Z,95797.81
2023-04-28T16:52:27.173Z,95809.38
2023-04-28T16:54:55.051Z,95792.84
2023-04-28T16:57:22.681Z,95792.94
2023-04-28T16:59:50.850Z,95799.56
2023-04-28T17:02:19.962Z,95804.59
2023-04-28T17:04:47.513Z,95797.63
2023-04-28T17:07:15.112Z,95794.31
2023-04-28T17:09:42.554Z,95791.25
2023-04-28T17:12:10.009Z,95784.56
2023-04-28T17:14:38.896Z,95784.34
2023-04-28T17:17:06.529Z,95801.22
2023-04-28T17:19:35.377Z,95783.59
2023-04-28T17:22:03.770Z,95790.59
2023-04-28T17:24:31.218Z,95782.19
2023-04-28T17:26:58.840Z,95778.59
2023-04-28T17:29:26.709Z,95778.00
2023-04-28T17:31:54.443Z,95789.59
2023-04-28T17:34:22.167Z,95779.72
2023-04-28T17:36:51.121Z,95781.75
2023-04-28T17:39:19.176Z,95794.50
2023-04-28T17:41:47.301Z,95804.25
2023-04-28T17:44:14.751Z,95796.72
2023-04-28T17:46:42.233Z,95794.84
2023-04-28T17:49:09.712Z,95800.81
2023-04-28T17:51:37.968Z,95806.88
2023-04-28T17:54:09.362Z,95801.75
2023-04-28T17:56:37.745Z,95792.50
2023-04-28T17:59:05.886Z,95785.06
2023-04-28T18:01:33.983Z,95801.31
2023-04-28T18:04:01.645Z,95808.34
2023-04-28T18:06:29.896Z,95804.25
2023-04-28T18:08:57.408Z,95784.34
2023-04-28T18:11:27.837Z,95764.91
2023-04-28T18:13:55.336Z,95783.50
2023-04-28T18:16:22.855Z,95801.16
2023-04-28T18:18:50.679Z,95797.69
2023-04-28T18:21:18.270Z,95783.31
2023-04-28T18:23:46.525Z,95801.41
2023-04-28T18:26:14.003Z,95812.44
2023-04-28T18:28:42.927Z,95806.81
2023-04-28T18:31:10.438Z,95796.94
2023-04-28T18:33:37.923Z,95796.50
2023-04-28T18:36:07.356Z,95809.97
2023-04-28T18:38:36.482Z,95826.16
2023-04-28T18:41:14.766Z,95800.06
2023-04-28T18:43:44.784Z,95793.00
2023-04-28T18:46:12.292Z,95788.16
2023-04-28T18:48:40.022Z,95764.34
2023-04-28T18:51:07.700Z,95778.13
2023-04-28T18:53:36.821Z,95793.88
2023-04-28T18:56:04.784Z,95786.16
2023-04-28T18:58:32.690Z,95807.81
2023-04-28T19:01:01.558Z,95806.06
2023-04-28T19:03:30.259Z,95816.00
2023-04-28T19:05:57.827Z,95819.94
2023-04-28T19:08:25.263Z,95830.06
2023-04-28T19:10:52.725Z,95832.19
2023-04-28T19:13:20.185Z,95845.31
2023-04-28T19:15:47.717Z,95847.78
2023-04-28T19:18:16.563Z,95852.69
2023-04-28T19:20:44.016Z,95862.47
2023-04-28T19:23:11.613Z,95859.25
2023-04-28T19:25:39.260Z,95859.66
2023-04-28T19:28:06.813Z,95855.06
2023-04-28T19:30:34.350Z,95853.47
2023-04-28T19:33:01.969Z,95860.69
2023-04-28T19:35:30.777Z,95872.00
2023-04-28T19:37:58.225Z,95853.91
2023-04-28T19:40:26.301Z,95859.59
2023-04-28T19:42:55.429Z,95852.16
2023-04-28T19:45:23.167Z,95859.53
2023-04-28T19:47:51.811Z,95861.81
2023-04-28T19:50:19.672Z,95860.81
2023-04-28T19:52:48.472Z,95862.00
2023-04-28T19:55:19.925Z,95860.06
2023-04-28T19:57:47.495Z,95855.47
2023-04-28T20:00:15.340Z,95850.50
2023-04-28T20:02:44.311Z,95858.53
2023-04-28T20:05:12.234Z,95867.03
2023-04-28T20:07:39.754Z,95867.94
2023-04-28T20:10:09.542Z,95864.81
2023-04-28T20:12:37.017Z,95869.00
2023-04-28T20:15:04.969Z,95872.00
2023-04-28T20:17:32.492Z,95873.13
2023-04-28T20:20:00.208Z,95868.91
2023-04-28T20:22:27.777Z,95864.91
2023-04-28T20:24:56.285Z,95882.44
2023-04-28T20:27:25.064Z,95881.16
2023-04-28T20:29:52.636Z,95888.88
2023-04-28T20:32:20.632Z,95897.06
2023-04-28T20:34:48.098Z,95895.41
2023-04-28T20:37:15.550Z,95898.53
2023-04-28T20:39:42.983Z,95895.50
2023-04-28T20:42:10.657Z,95902.22
2023-04-28T20:44:40.883Z,95899.00
2023-04-28T20:47:08.399Z,95900.38
2023-04-28T20:49:36.085Z,95909.69
2023-04-28T20:52:04.755Z,95910.44
2023-04-28T20:54:33.511Z,95899.88
2023-04-28T20:57:01.712Z,95914.31
2023-04-28T20:59:32.198Z,95924.22
2023-04-28T21:02:01.361Z,95926.53
2023-04-28T21:04:28.902Z,95928.03
2023-04-28T21:06:56.432Z,95920.09
2023-04-28T21:09:24.938Z,95919.59
2023-04-28T21:11:52.621Z,95917.91
2023-04-28T21:14:20.310Z,95916.34
2023-04-28T21:16:47.818Z,95917.00
2023-04-28T21:19:17.304Z,95919.00
2023-04-28T21:21:44.977Z,95922.34
2023-04-28T21:24:12.607Z,95921.94
2023-04-28T21:26:40.657Z,95906.69
2023-04-28T21:29:09.229Z,95924.16
2023-04-28T21:31:37.232Z,95921.59
2023-04-28T21:34:04.783Z,95911.03
2023-04-28T21:36:34.357Z,95923.41
2023-04-28T21:39:01.842Z,95921.28
2023-04-28T21:41:29.306Z,95927.78
2023-04-28T21:43:56.779Z,95920.56
2023-04-28T21:46:24.264Z,95907.28
2023-04-28T21:48:51.715Z,95898.28
2023-04-28T21:51:19.221Z,95904.31
2023-04-28T21:53:48.033Z,95902.84
2023-04-28T21:56:17.145Z,95913.09
2023-04-28T21:58:44.998Z,95917.66
2023-04-28T22:01:15.276Z,95921.66
2023-04-28T22:03:42.945Z,95911.47
2023-04-28T22:06:10.613Z,95917.28
2023-04-28T22:08:38.341Z,95923.88
2023-04-28T22:11:07.180Z,95920.44
2023-04-28T22:13:34.875Z,95913.03
2023-04-28T22:16:02.776Z,95913.03
2023-04-28T22:18:30.422Z,95914.34
2023-04-28T22:20:57.988Z,95922.84
2023-04-28T22:23:25.871Z,95914.34
2023-04-28T22:25:53.323Z,95913.09
2023-04-28T22:28:22.571Z,95909.06
2023-04-28T22:30:50.044Z,95892.56
2023-04-28T22:33:17.534Z,95914.63
2023-04-28T22:35:44.976Z,95911.69
2023-04-28T22:38:12.455Z,95909.41
2023-04-28T22:40:39.894Z,95910.75
2023-04-28T22:43:07.350Z,95914.91
2023-04-28T22:45:36.178Z,95911.47
2023-04-28T22:48:03.878Z,95904.22
2023-04-28T22:50:31.443Z,95897.09
2023-04-28T22:52:58.907Z,95892.31
2023-04-28T22:55:26.667Z,95892.22
2023-04-28T22:57:54.122Z,95890.44
2023-04-28T23:00:21.733Z,95890.19
2023-04-28T23:02:50.628Z,95887.63
2023-04-28T23:05:18.388Z,95893.84
2023-04-28T23:07:45.936Z,95888.25
2023-04-28T23:10:14.734Z,95894.41
2023-04-28T23:12:42.276Z,95887.97
2023-04-28T23:15:10.420Z,95892.53
2023-04-28T23:17:37.947Z,95885.69
2023-04-28T23:20:07.989Z,95891.91
2023-04-28T23:22:35.430Z,95885.50
2023-04-28T23:25:02.948Z,95889.09
2023-04-28T23:27:30.379Z,95881.81
2023-04-28T23:29:57.955Z,95872.44
2023-04-28T23:32:25.538Z,95874.72
2023-04-28T23:34:53.623Z,95877.25
2023-04-28T23:37:22.456Z,95875.69
2023-04-28T23:39:50.156Z,95881.81
2023-04-28T23:42:17.870Z,95879.19
2023-04-28T23:44:45.310Z,95871.88
2023-04-28T23:47:13.815Z,95879.66
2023-04-28T23:49:41.261Z,95865.56
2023-04-28T23:52:08.694Z,95857.91
2023-04-28T23:54:37.509Z,95861.28
2023-04-28T23:57:05.265Z,95862.84
2023-04-28T23:59:32.726Z,95849.81
